Nearby METAR Reports

 

GCLP - Las Palmas/Gando, Spain
Distance from station: NE 26km
Updated: 26/02/2021 15:00
Few Clouds
Few Clouds
 Wind from N
Wind: N 41 km/h
Temperature: 20°C
Dew Point: 8°C
Humidity: 46%
Barometer: 1024 hPa
Clouds: Few Clouds
Visibility: 10 km
Cloud details: Few Clouds 914 m
2021/02/26 15:00 GCLP 261500Z 01022KT 9999 FEW030 20/08 Q1024 NOSIG
GCTS - Tenerife Sur/Rei, Spain
Distance from station: WNW 102km
Updated: 26/02/2021 15:00
Few Clouds
Few Clouds
 Wind from E
Wind: E 44 km/h
Temperature: 21°C
Dew Point: 6°C
Humidity: 38%
Barometer: 1024 hPa
Clouds: Few Clouds
Visibility: 10 km
Cloud details: Few Clouds 1524 m
2021/02/26 15:00 GCTS 261500Z 09024KT 9999 FEW050 21/06 Q1024 NOSIG
 
GCXO - Tenerife/Los Rod, Spain
Distance from station: NW 110km
Updated: 26/02/2021 15:00
Mostly cloudy
Mostly cloudy
 Wind from NW
Wind: NW 31 km/h
Temperature: 14°C
Dew Point: 8°C
Humidity: 67%
Barometer: 1026 hPa
Clouds: Mostly cloudy
Visibility: 10 km
Cloud details: Few Clouds 457 m
Mostly cloudy 732 m
2021/02/26 15:00 GCXO 261500Z 32017KT 290V350 9999 FEW015 BKN024 14/08 Q1026 NOSIG
GCGM - La Gomera Arpt, Spain
Distance from station: W 164km
Updated: 26/02/2021 15:00
Few Clouds
Few Clouds
 Wind from varies
Wind: varies 24 km/h, Gust: 46 km/h
Temperature: 20°C
Dew Point: 6°C
Humidity: 40%
Barometer: 1025 hPa
Clouds: Few Clouds
Visibility: 10 km
Cloud details: Few Clouds 610 m
2021/02/26 15:00 GCGM 261500Z VRB13G25KT 9999 FEW020 20/06 Q1025 RMK R09/VRB09G21KT ARP/04011KT 340V110
 
GCFV - Fuerteventura Ar, Spain
Distance from station: ENE 183km
Updated: 26/02/2021 15:00
Partly cloudy
Partly cloudy
 Wind from NE
Wind: NE 35 km/h
Temperature: 19°C
Dew Point: 10°C
Humidity: 56%
Barometer: 1023 hPa
Clouds: Partly cloudy
Visibility: 10 km
Cloud details: Partly cloudy 1219 m
2021/02/26 15:00 GCFV 261500Z 04019KT 9999 SCT040 19/10 Q1023
GCHI - Hierro Airport, Spain
Distance from station: W 226km
Updated: 26/02/2021 15:00
Few Clouds
Few Clouds
 Wind from NNE
Wind: NNE 33 km/h
Temperature: 20°C
Dew Point: 9°C
Humidity: 49%
Barometer: 1026 hPa
Clouds: Few Clouds
Visibility: 10 km
Cloud details: Few Clouds 1219 m
2021/02/26 15:00 GCHI 261500Z 03018KT 360V060 9999 FEW040 20/09 Q1026
 
GCLA - La Palma Airport, Spain
Distance from station: WNW 233km
Updated: 26/02/2021 15:00
Mostly cloudy
Mostly cloudy
 Wind from N
Wind: N 28 km/h
Temperature: 19°C
Dew Point: 10°C
Humidity: 56%
Barometer: 1026 hPa
Clouds: Mostly cloudy
Visibility: 10 km
Cloud details: Few Clouds 1219 m
Mostly cloudy 1524 m
2021/02/26 15:00 GCLA 261500Z 01015KT 9999 FEW040 BKN050 19/10 Q1026
GCRR - Arrecife/Lanzaro, Spain
Distance from station: NE 234km
Updated: 26/02/2021 15:00
Partly cloudy
Partly cloudy
 Wind from N
Wind: N 37 km/h
Temperature: 21°C
Dew Point: 9°C
Humidity: 46%
Barometer: 1023 hPa
Clouds: Partly cloudy
Visibility: 10 km
Cloud details: Few Clouds 914 m
Partly cloudy 1372 m
2021/02/26 15:00 GCRR 261500Z 35020KT 9999 FEW030 SCT045 21/09 Q1023
 
LPMA - Funchal/Madeira, Portugal
Distance from station: NNW 556km
Updated: 26/02/2021 15:00
Partly cloudy
Partly cloudy
 Wind from NNE
Wind: NNE 26 km/h
Temperature: 16°C
Dew Point: 6°C
Humidity: 52%
Barometer: 1028 hPa
Clouds: Partly cloudy
Visibility: 10 km
Cloud details: Partly cloudy 457 m
2021/02/26 15:00 LPMA 261500Z 02014KT 350V050 9999 SCT015 16/06 Q1028
LPPS - Porto Santo Isla, Portugal
Distance from station: N 594km
Updated: 26/02/2021 15:00
Partly cloudy
Partly cloudy
 Wind from N
Wind: N 30 km/h
Temperature: 15°C
Dew Point: 6°C
Humidity: 55%
Barometer: 1029 hPa
Clouds: Partly cloudy
Visibility: 10 km
Cloud details: Partly cloudy 457 m
Partly cloudy 914 m
2021/02/26 15:00 LPPS 261500Z 36016KT 330V030 9999 SCT015 SCT030 15/06 Q1029